sensor_id;sensor_type;location;lat;lon;timestamp;P1;durP1;ratioP1;P2;durP2;ratioP2
13040;SDS011;6587;42.728;23.288;2023-03-21T00:01:07;32.83;;;19.50;;
13040;SDS011;6587;42.728;23.288;2023-03-21T00:03:33;35.97;;;19.90;;
13040;SDS011;6587;42.728;23.288;2023-03-21T00:06:03;32.03;;;18.80;;
13040;SDS011;6587;42.728;23.288;2023-03-21T00:08:30;34.10;;;18.90;;
13040;SDS011;6587;42.728;23.288;2023-03-21T00:10:57;33.00;;;19.03;;
13040;SDS011;6587;42.728;23.288;2023-03-21T00:13:24;28.60;;;18.07;;
13040;SDS011;6587;42.728;23.288;2023-03-21T00:15:52;33.67;;;18.33;;
13040;SDS011;6587;42.728;23.288;2023-03-21T00:18:21;33.03;;;18.17;;
13040;SDS011;6587;42.728;23.288;2023-03-21T00:20:54;29.60;;;18.40;;
13040;SDS011;6587;42.728;23.288;2023-03-21T00:23:23;31.80;;;18.57;;
13040;SDS011;6587;42.728;23.288;2023-03-21T00:25:49;28.70;;;18.20;;
13040;SDS011;6587;42.728;23.288;2023-03-21T00:28:16;30.13;;;17.73;;
13040;SDS011;6587;42.728;23.288;2023-03-21T00:30:43;28.67;;;17.47;;
13040;SDS011;6587;42.728;23.288;2023-03-21T00:33:10;27.13;;;17.53;;
13040;SDS011;6587;42.728;23.288;2023-03-21T00:35:39;28.13;;;17.30;;
13040;SDS011;6587;42.728;23.288;2023-03-21T00:38:07;30.03;;;18.20;;
13040;SDS011;6587;42.728;23.288;2023-03-21T00:40:34;32.90;;;18.10;;
13040;SDS011;6587;42.728;23.288;2023-03-21T00:43:00;29.33;;;17.77;;
13040;SDS011;6587;42.728;23.288;2023-03-21T00:45:27;29.40;;;18.27;;
13040;SDS011;6587;42.728;23.288;2023-03-21T00:47:54;28.90;;;18.03;;
13040;SDS011;6587;42.728;23.288;2023-03-21T00:50:20;29.07;;;17.93;;
13040;SDS011;6587;42.728;23.288;2023-03-21T00:52:48;26.50;;;17.43;;
13040;SDS011;6587;42.728;23.288;2023-03-21T00:55:16;31.77;;;19.07;;
13040;SDS011;6587;42.728;23.288;2023-03-21T00:57:43;30.97;;;17.60;;
13040;SDS011;6587;42.728;23.288;2023-03-21T01:00:11;27.80;;;17.90;;
13040;SDS011;6587;42.728;23.288;2023-03-21T01:02:39;26.70;;;17.17;;
13040;SDS011;6587;42.728;23.288;2023-03-21T01:05:20;32.90;;;19.57;;
13040;SDS011;6587;42.728;23.288;2023-03-21T01:08:08;31.63;;;19.37;;
13040;SDS011;6587;42.728;23.288;2023-03-21T01:10:37;24.13;;;15.50;;
13040;SDS011;6587;42.728;23.288;2023-03-21T01:13:03;25.37;;;16.23;;
13040;SDS011;6587;42.728;23.288;2023-03-21T01:15:30;23.17;;;14.37;;
13040;SDS011;6587;42.728;23.288;2023-03-21T01:17:57;23.00;;;14.20;;
13040;SDS011;6587;42.728;23.288;2023-03-21T01:20:23;27.77;;;15.07;;
13040;SDS011;6587;42.728;23.288;2023-03-21T01:22:50;23.93;;;15.30;;
13040;SDS011;6587;42.728;23.288;2023-03-21T01:25:18;23.50;;;14.87;;
13040;SDS011;6587;42.728;23.288;2023-03-21T01:27:45;26.63;;;15.83;;
13040;SDS011;6587;42.728;23.288;2023-03-21T01:30:12;23.80;;;14.67;;
13040;SDS011;6587;42.728;23.288;2023-03-21T01:32:38;26.87;;;17.43;;
13040;SDS011;6587;42.728;23.288;2023-03-21T01:35:05;27.27;;;17.97;;
13040;SDS011;6587;42.728;23.288;2023-03-21T01:37:32;27.27;;;17.10;;
13040;SDS011;6587;42.728;23.288;2023-03-21T01:39:59;32.37;;;18.80;;
13040;SDS011;6587;42.728;23.288;2023-03-21T01:42:27;28.13;;;17.57;;
13040;SDS011;6587;42.728;23.288;2023-03-21T01:44:54;27.83;;;16.73;;
13040;SDS011;6587;42.728;23.288;2023-03-21T01:47:24;29.43;;;19.10;;
13040;SDS011;6587;42.728;23.288;2023-03-21T01:50:09;28.37;;;17.43;;
13040;SDS011;6587;42.728;23.288;2023-03-21T01:52:41;24.57;;;16.63;;
13040;SDS011;6587;42.728;23.288;2023-03-21T01:55:22;24.20;;;14.83;;
13040;SDS011;6587;42.728;23.288;2023-03-21T01:57:57;26.10;;;15.53;;
13040;SDS011;6587;42.728;23.288;2023-03-21T02:00:25;35.10;;;18.17;;
13040;SDS011;6587;42.728;23.288;2023-03-21T02:03:06;30.67;;;17.67;;
13040;SDS011;6587;42.728;23.288;2023-03-21T02:05:54;29.57;;;16.00;;
13040;SDS011;6587;42.728;23.288;2023-03-21T02:08:25;26.70;;;17.37;;
13040;SDS011;6587;42.728;23.288;2023-03-21T02:10:52;32.13;;;18.27;;
13040;SDS011;6587;42.728;23.288;2023-03-21T02:13:34;28.33;;;17.50;;
13040;SDS011;6587;42.728;23.288;2023-03-21T02:16:07;29.93;;;17.83;;
13040;SDS011;6587;42.728;23.288;2023-03-21T02:18:40;29.03;;;17.00;;
13040;SDS011;6587;42.728;23.288;2023-03-21T02:21:16;26.03;;;16.30;;
13040;SDS011;6587;42.728;23.288;2023-03-21T02:29:41;28.90;;;16.63;;
13040;SDS011;6587;42.728;23.288;2023-03-21T02:32:15;31.57;;;17.10;;
13040;SDS011;6587;42.728;23.288;2023-03-21T02:34:50;28.37;;;17.90;;
13040;SDS011;6587;42.728;23.288;2023-03-21T02:37:21;31.70;;;17.57;;
13040;SDS011;6587;42.728;23.288;2023-03-21T02:39:54;28.47;;;16.80;;
13040;SDS011;6587;42.728;23.288;2023-03-21T02:42:24;31.27;;;18.13;;
13040;SDS011;6587;42.728;23.288;2023-03-21T02:44:53;26.83;;;17.07;;
13040;SDS011;6587;42.728;23.288;2023-03-21T02:47:24;31.17;;;17.87;;
13040;SDS011;6587;42.728;23.288;2023-03-21T02:49:54;28.13;;;16.97;;
13040;SDS011;6587;42.728;23.288;2023-03-21T02:52:25;28.67;;;16.10;;
13040;SDS011;6587;42.728;23.288;2023-03-21T02:54:52;29.07;;;15.80;;
13040;SDS011;6587;42.728;23.288;2023-03-21T02:57:23;24.27;;;15.80;;
13040;SDS011;6587;42.728;23.288;2023-03-21T02:59:51;26.03;;;14.97;;
13040;SDS011;6587;42.728;23.288;2023-03-21T03:02:22;22.30;;;12.97;;
13040;SDS011;6587;42.728;23.288;2023-03-21T03:04:50;22.40;;;12.27;;
13040;SDS011;6587;42.728;23.288;2023-03-21T03:07:19;22.27;;;13.77;;
13040;SDS011;6587;42.728;23.288;2023-03-21T03:09:53;22.07;;;12.97;;
13040;SDS011;6587;42.728;23.288;2023-03-21T03:12:26;20.13;;;13.20;;
13040;SDS011;6587;42.728;23.288;2023-03-21T03:14:58;23.67;;;14.10;;
13040;SDS011;6587;42.728;23.288;2023-03-21T03:17:34;24.90;;;15.27;;
13040;SDS011;6587;42.728;23.288;2023-03-21T03:20:14;32.90;;;18.30;;
13040;SDS011;6587;42.728;23.288;2023-03-21T03:22:45;31.10;;;17.97;;
13040;SDS011;6587;42.728;23.288;2023-03-21T03:25:17;39.17;;;21.10;;
13040;SDS011;6587;42.728;23.288;2023-03-21T03:27:49;27.93;;;15.73;;
13040;SDS011;6587;42.728;23.288;2023-03-21T03:30:16;25.77;;;14.17;;
13040;SDS011;6587;42.728;23.288;2023-03-21T03:32:44;20.10;;;13.27;;
13040;SDS011;6587;42.728;23.288;2023-03-21T03:35:12;24.30;;;14.37;;
13040;SDS011;6587;42.728;23.288;2023-03-21T03:37:40;21.23;;;14.37;;
13040;SDS011;6587;42.728;23.288;2023-03-21T03:40:09;22.23;;;13.40;;
13040;SDS011;6587;42.728;23.288;2023-03-21T03:42:44;21.27;;;13.10;;
13040;SDS011;6587;42.728;23.288;2023-03-21T03:45:22;25.17;;;13.07;;
13040;SDS011;6587;42.728;23.288;2023-03-21T03:47:52;22.73;;;14.00;;
13040;SDS011;6587;42.728;23.288;2023-03-21T03:50:22;24.63;;;15.70;;
13040;SDS011;6587;42.728;23.288;2023-03-21T03:52:53;26.30;;;16.27;;
13040;SDS011;6587;42.728;23.288;2023-03-21T03:55:21;23.67;;;15.00;;
13040;SDS011;6587;42.728;23.288;2023-03-21T03:57:52;24.50;;;14.80;;
13040;SDS011;6587;42.728;23.288;2023-03-21T04:00:19;25.53;;;16.63;;
13040;SDS011;6587;42.728;23.288;2023-03-21T04:02:49;28.20;;;15.87;;
13040;SDS011;6587;42.728;23.288;2023-03-21T04:05:20;30.03;;;15.53;;
13040;SDS011;6587;42.728;23.288;2023-03-21T04:07:46;27.43;;;15.83;;
13040;SDS011;6587;42.728;23.288;2023-03-21T04:10:15;26.93;;;15.17;;
13040;SDS011;6587;42.728;23.288;2023-03-21T04:12:42;31.27;;;17.80;;
13040;SDS011;6587;42.728;23.288;2023-03-21T04:15:13;30.27;;;17.33;;
13040;SDS011;6587;42.728;23.288;2023-03-21T04:17:45;40.20;;;18.27;;
13040;SDS011;6587;42.728;23.288;2023-03-21T04:20:12;35.53;;;16.80;;
13040;SDS011;6587;42.728;23.288;2023-03-21T04:22:39;19.83;;;11.70;;
13040;SDS011;6587;42.728;23.288;2023-03-21T04:25:06;24.80;;;14.70;;
13040;SDS011;6587;42.728;23.288;2023-03-21T04:27:34;31.73;;;15.43;;
13040;SDS011;6587;42.728;23.288;2023-03-21T04:30:20;32.37;;;16.33;;
13040;SDS011;6587;42.728;23.288;2023-03-21T04:33:15;39.67;;;17.47;;
13040;SDS011;6587;42.728;23.288;2023-03-21T04:35:49;38.87;;;18.27;;
13040;SDS011;6587;42.728;23.288;2023-03-21T04:38:21;32.63;;;16.20;;
13040;SDS011;6587;42.728;23.288;2023-03-21T04:40:48;26.07;;;15.07;;
13040;SDS011;6587;42.728;23.288;2023-03-21T04:43:14;29.23;;;15.63;;
13040;SDS011;6587;42.728;23.288;2023-03-21T04:45:42;31.03;;;15.07;;
13040;SDS011;6587;42.728;23.288;2023-03-21T04:48:10;24.00;;;14.10;;
13040;SDS011;6587;42.728;23.288;2023-03-21T04:50:39;24.20;;;13.10;;
13040;SDS011;6587;42.728;23.288;2023-03-21T04:53:05;27.33;;;14.10;;
13040;SDS011;6587;42.728;23.288;2023-03-21T04:55:33;24.67;;;12.60;;
13040;SDS011;6587;42.728;23.288;2023-03-21T04:58:01;21.83;;;13.10;;
13040;SDS011;6587;42.728;23.288;2023-03-21T05:00:28;28.87;;;16.63;;
13040;SDS011;6587;42.728;23.288;2023-03-21T05:02:57;37.63;;;16.63;;
13040;SDS011;6587;42.728;23.288;2023-03-21T05:05:25;32.57;;;17.73;;
13040;SDS011;6587;42.728;23.288;2023-03-21T05:07:52;31.53;;;17.03;;
13040;SDS011;6587;42.728;23.288;2023-03-21T05:10:19;40.67;;;18.37;;
13040;SDS011;6587;42.728;23.288;2023-03-21T05:12:45;40.40;;;18.47;;
13040;SDS011;6587;42.728;23.288;2023-03-21T05:15:12;35.70;;;18.90;;
13040;SDS011;6587;42.728;23.288;2023-03-21T05:17:40;40.37;;;18.47;;
13040;SDS011;6587;42.728;23.288;2023-03-21T05:20:10;46.20;;;18.23;;
13040;SDS011;6587;42.728;23.288;2023-03-21T05:22:37;37.37;;;17.53;;
13040;SDS011;6587;42.728;23.288;2023-03-21T05:25:09;41.87;;;19.40;;
13040;SDS011;6587;42.728;23.288;2023-03-21T05:27:56;57.77;;;20.93;;
13040;SDS011;6587;42.728;23.288;2023-03-21T05:30:28;55.30;;;22.97;;
13040;SDS011;6587;42.728;23.288;2023-03-21T05:32:57;54.60;;;23.10;;
13040;SDS011;6587;42.728;23.288;2023-03-21T05:35:26;36.43;;;20.00;;
13040;SDS011;6587;42.728;23.288;2023-03-21T05:37:56;33.60;;;17.77;;
13040;SDS011;6587;42.728;23.288;2023-03-21T05:40:24;29.67;;;16.80;;
13040;SDS011;6587;42.728;23.288;2023-03-21T05:42:55;30.07;;;16.23;;
13040;SDS011;6587;42.728;23.288;2023-03-21T05:45:23;28.37;;;15.47;;
13040;SDS011;6587;42.728;23.288;2023-03-21T05:47:50;26.57;;;15.33;;
13040;SDS011;6587;42.728;23.288;2023-03-21T05:50:18;37.77;;;17.27;;
13040;SDS011;6587;42.728;23.288;2023-03-21T05:53:00;38.60;;;19.23;;
13040;SDS011;6587;42.728;23.288;2023-03-21T05:55:27;39.77;;;19.03;;
13040;SDS011;6587;42.728;23.288;2023-03-21T05:57:54;38.40;;;18.43;;
13040;SDS011;6587;42.728;23.288;2023-03-21T06:00:25;37.97;;;17.67;;
13040;SDS011;6587;42.728;23.288;2023-03-21T06:03:10;31.63;;;19.17;;
13040;SDS011;6587;42.728;23.288;2023-03-21T06:05:55;33.37;;;19.03;;
13040;SDS011;6587;42.728;23.288;2023-03-21T06:08:27;40.73;;;19.10;;
13040;SDS011;6587;42.728;23.288;2023-03-21T06:10:54;34.87;;;20.93;;
13040;SDS011;6587;42.728;23.288;2023-03-21T06:13:21;43.00;;;21.13;;
13040;SDS011;6587;42.728;23.288;2023-03-21T06:15:48;43.23;;;22.40;;
13040;SDS011;6587;42.728;23.288;2023-03-21T06:18:18;49.00;;;24.03;;
13040;SDS011;6587;42.728;23.288;2023-03-21T06:21:01;47.23;;;22.93;;
13040;SDS011;6587;42.728;23.288;2023-03-21T06:23:29;39.43;;;22.23;;
13040;SDS011;6587;42.728;23.288;2023-03-21T06:25:56;42.73;;;22.43;;
13040;SDS011;6587;42.728;23.288;2023-03-21T06:28:25;42.47;;;20.53;;
13040;SDS011;6587;42.728;23.288;2023-03-21T06:30:52;39.23;;;18.73;;
13040;SDS011;6587;42.728;23.288;2023-03-21T06:33:22;34.13;;;18.57;;
13040;SDS011;6587;42.728;23.288;2023-03-21T06:35:49;31.53;;;18.93;;
13040;SDS011;6587;42.728;23.288;2023-03-21T06:38:16;40.10;;;17.53;;
13040;SDS011;6587;42.728;23.288;2023-03-21T06:40:45;28.40;;;15.73;;
13040;SDS011;6587;42.728;23.288;2023-03-21T06:43:12;29.80;;;15.10;;
13040;SDS011;6587;42.728;23.288;2023-03-21T06:45:38;21.37;;;14.33;;
13040;SDS011;6587;42.728;23.288;2023-03-21T06:48:08;25.87;;;14.13;;
13040;SDS011;6587;42.728;23.288;2023-03-21T06:50:47;33.07;;;15.03;;
13040;SDS011;6587;42.728;23.288;2023-03-21T06:53:15;32.17;;;14.00;;
13040;SDS011;6587;42.728;23.288;2023-03-21T06:56:06;22.70;;;12.73;;
13040;SDS011;6587;42.728;23.288;2023-03-21T06:58:34;21.90;;;11.63;;
13040;SDS011;6587;42.728;23.288;2023-03-21T07:01:02;25.80;;;11.37;;
13040;SDS011;6587;42.728;23.288;2023-03-21T07:03:33;26.93;;;10.70;;
13040;SDS011;6587;42.728;23.288;2023-03-21T07:06:02;20.23;;;11.50;;
13040;SDS011;6587;42.728;23.288;2023-03-21T07:08:29;21.53;;;10.00;;
13040;SDS011;6587;42.728;23.288;2023-03-21T07:10:56;23.03;;;11.30;;
13040;SDS011;6587;42.728;23.288;2023-03-21T07:13:24;20.93;;;10.00;;
13040;SDS011;6587;42.728;23.288;2023-03-21T07:15:56;17.23;;;9.83;;
13040;SDS011;6587;42.728;23.288;2023-03-21T07:18:23;18.07;;;10.40;;
13040;SDS011;6587;42.728;23.288;2023-03-21T07:20:50;15.57;;;9.87;;
13040;SDS011;6587;42.728;23.288;2023-03-21T07:23:18;24.27;;;10.37;;
13040;SDS011;6587;42.728;23.288;2023-03-21T07:25:46;16.17;;;9.93;;
13040;SDS011;6587;42.728;23.288;2023-03-21T07:28:13;18.07;;;10.10;;
13040;SDS011;6587;42.728;23.288;2023-03-21T07:30:41;16.97;;;10.17;;
13040;SDS011;6587;42.728;23.288;2023-03-21T07:33:07;15.70;;;10.30;;
13040;SDS011;6587;42.728;23.288;2023-03-21T07:35:34;20.33;;;11.10;;
13040;SDS011;6587;42.728;23.288;2023-03-21T07:38:02;18.43;;;10.60;;
13040;SDS011;6587;42.728;23.288;2023-03-21T07:40:29;19.77;;;10.90;;
13040;SDS011;6587;42.728;23.288;2023-03-21T07:42:55;23.17;;;11.37;;
13040;SDS011;6587;42.728;23.288;2023-03-21T07:45:32;19.70;;;11.30;;
13040;SDS011;6587;42.728;23.288;2023-03-21T07:48:00;22.90;;;10.87;;
13040;SDS011;6587;42.728;23.288;2023-03-21T07:50:30;21.03;;;10.37;;
13040;SDS011;6587;42.728;23.288;2023-03-21T07:52:58;17.30;;;10.10;;
13040;SDS011;6587;42.728;23.288;2023-03-21T07:55:25;17.33;;;10.33;;
13040;SDS011;6587;42.728;23.288;2023-03-21T07:57:51;21.60;;;11.20;;
13040;SDS011;6587;42.728;23.288;2023-03-21T08:00:20;19.93;;;10.53;;
13040;SDS011;6587;42.728;23.288;2023-03-21T08:02:48;21.53;;;11.50;;
13040;SDS011;6587;42.728;23.288;2023-03-21T08:05:20;19.87;;;12.40;;
13040;SDS011;6587;42.728;23.288;2023-03-21T08:07:47;22.70;;;12.33;;
13040;SDS011;6587;42.728;23.288;2023-03-21T08:10:13;15.97;;;12.27;;
13040;SDS011;6587;42.728;23.288;2023-03-21T08:12:41;25.37;;;13.63;;
13040;SDS011;6587;42.728;23.288;2023-03-21T08:15:08;18.13;;;13.13;;
13040;SDS011;6587;42.728;23.288;2023-03-21T08:17:34;22.00;;;14.57;;
13040;SDS011;6587;42.728;23.288;2023-03-21T08:20:02;24.33;;;14.90;;
13040;SDS011;6587;42.728;23.288;2023-03-21T08:22:33;24.87;;;14.53;;
13040;SDS011;6587;42.728;23.288;2023-03-21T08:25:00;20.00;;;12.23;;
13040;SDS011;6587;42.728;23.288;2023-03-21T08:27:28;13.40;;;9.33;;
13040;SDS011;6587;42.728;23.288;2023-03-21T08:29:55;16.37;;;10.87;;
13040;SDS011;6587;42.728;23.288;2023-03-21T08:32:21;18.27;;;10.70;;
13040;SDS011;6587;42.728;23.288;2023-03-21T08:34:53;19.17;;;11.53;;
13040;SDS011;6587;42.728;23.288;2023-03-21T08:37:21;22.27;;;12.50;;
13040;SDS011;6587;42.728;23.288;2023-03-21T08:39:49;19.90;;;11.67;;
13040;SDS011;6587;42.728;23.288;2023-03-21T08:42:15;16.40;;;10.63;;
13040;SDS011;6587;42.728;23.288;2023-03-21T08:44:42;17.73;;;11.13;;
13040;SDS011;6587;42.728;23.288;2023-03-21T08:47:08;20.33;;;11.40;;
13040;SDS011;6587;42.728;23.288;2023-03-21T08:49:35;20.33;;;11.53;;
13040;SDS011;6587;42.728;23.288;2023-03-21T08:52:02;17.87;;;11.27;;
13040;SDS011;6587;42.728;23.288;2023-03-21T08:54:28;20.37;;;11.30;;
13040;SDS011;6587;42.728;23.288;2023-03-21T08:56:57;16.13;;;10.90;;
13040;SDS011;6587;42.728;23.288;2023-03-21T08:59:23;20.37;;;11.90;;
13040;SDS011;6587;42.728;23.288;2023-03-21T09:01:50;17.03;;;10.93;;
13040;SDS011;6587;42.728;23.288;2023-03-21T09:04:17;19.27;;;11.73;;
13040;SDS011;6587;42.728;23.288;2023-03-21T09:06:44;25.77;;;12.03;;
13040;SDS011;6587;42.728;23.288;2023-03-21T09:09:13;19.97;;;10.50;;
13040;SDS011;6587;42.728;23.288;2023-03-21T09:11:39;16.20;;;10.50;;
13040;SDS011;6587;42.728;23.288;2023-03-21T09:14:07;16.67;;;11.23;;
13040;SDS011;6587;42.728;23.288;2023-03-21T09:16:34;15.10;;;10.53;;
13040;SDS011;6587;42.728;23.288;2023-03-21T09:19:00;18.43;;;10.43;;
13040;SDS011;6587;42.728;23.288;2023-03-21T09:21:28;18.63;;;10.70;;
13040;SDS011;6587;42.728;23.288;2023-03-21T09:23:55;18.60;;;11.03;;
13040;SDS011;6587;42.728;23.288;2023-03-21T09:26:24;15.37;;;11.60;;
13040;SDS011;6587;42.728;23.288;2023-03-21T09:28:52;16.40;;;11.00;;
13040;SDS011;6587;42.728;23.288;2023-03-21T09:31:20;17.80;;;11.17;;
13040;SDS011;6587;42.728;23.288;2023-03-21T09:33:49;18.27;;;11.50;;
13040;SDS011;6587;42.728;23.288;2023-03-21T09:36:16;16.93;;;11.17;;
13040;SDS011;6587;42.728;23.288;2023-03-21T09:38:43;23.33;;;11.23;;
13040;SDS011;6587;42.728;23.288;2023-03-21T09:41:16;16.67;;;11.20;;
13040;SDS011;6587;42.728;23.288;2023-03-21T09:43:48;17.40;;;11.53;;
13040;SDS011;6587;42.728;23.288;2023-03-21T09:46:21;14.60;;;11.47;;
13040;SDS011;6587;42.728;23.288;2023-03-21T09:48:53;18.70;;;11.07;;
13040;SDS011;6587;42.728;23.288;2023-03-21T09:51:22;17.10;;;11.10;;
13040;SDS011;6587;42.728;23.288;2023-03-21T09:53:50;20.93;;;10.63;;
13040;SDS011;6587;42.728;23.288;2023-03-21T09:56:19;18.03;;;10.47;;
13040;SDS011;6587;42.728;23.288;2023-03-21T09:58:47;15.20;;;9.83;;
13040;SDS011;6587;42.728;23.288;2023-03-21T10:01:17;17.10;;;10.23;;
13040;SDS011;6587;42.728;23.288;2023-03-21T10:03:52;16.57;;;11.23;;
13040;SDS011;6587;42.728;23.288;2023-03-21T10:06:20;17.10;;;10.90;;
13040;SDS011;6587;42.728;23.288;2023-03-21T10:08:54;16.27;;;10.33;;
13040;SDS011;6587;42.728;23.288;2023-03-21T10:11:23;16.40;;;10.30;;
13040;SDS011;6587;42.728;23.288;2023-03-21T10:13:52;16.23;;;10.87;;
13040;SDS011;6587;42.728;23.288;2023-03-21T10:16:21;19.20;;;10.93;;
13040;SDS011;6587;42.728;23.288;2023-03-21T10:18:50;20.27;;;10.37;;
13040;SDS011;6587;42.728;23.288;2023-03-21T10:21:19;15.63;;;9.57;;
13040;SDS011;6587;42.728;23.288;2023-03-21T10:23:46;81.13;;;57.13;;
13040;SDS011;6587;42.728;23.288;2023-03-21T10:26:16;57.50;;;36.87;;
13040;SDS011;6587;42.728;23.288;2023-03-21T10:28:43;20.63;;;12.23;;
13040;SDS011;6587;42.728;23.288;2023-03-21T10:31:13;18.20;;;10.70;;
13040;SDS011;6587;42.728;23.288;2023-03-21T10:33:41;19.57;;;11.23;;
13040;SDS011;6587;42.728;23.288;2023-03-21T10:36:09;15.43;;;10.67;;
13040;SDS011;6587;42.728;23.288;2023-03-21T10:38:38;16.80;;;10.73;;
13040;SDS011;6587;42.728;23.288;2023-03-21T10:41:06;12.67;;;10.23;;
13040;SDS011;6587;42.728;23.288;2023-03-21T10:43:34;18.17;;;11.40;;
13040;SDS011;6587;42.728;23.288;2023-03-21T10:46:06;15.23;;;10.20;;
13040;SDS011;6587;42.728;23.288;2023-03-21T10:48:34;16.50;;;10.20;;
13040;SDS011;6587;42.728;23.288;2023-03-21T10:51:01;15.90;;;10.53;;
13040;SDS011;6587;42.728;23.288;2023-03-21T10:53:32;14.33;;;9.13;;
13040;SDS011;6587;42.728;23.288;2023-03-21T10:56:02;13.10;;;9.17;;
13040;SDS011;6587;42.728;23.288;2023-03-21T10:58:33;15.63;;;10.00;;
13040;SDS011;6587;42.728;23.288;2023-03-21T11:01:04;19.23;;;10.20;;
13040;SDS011;6587;42.728;23.288;2023-03-21T11:03:34;15.10;;;8.13;;
13040;SDS011;6587;42.728;23.288;2023-03-21T11:06:02;16.90;;;8.87;;
13040;SDS011;6587;42.728;23.288;2023-03-21T11:08:29;16.63;;;7.83;;
13040;SDS011;6587;42.728;23.288;2023-03-21T11:10:59;12.47;;;8.40;;
13040;SDS011;6587;42.728;23.288;2023-03-21T11:13:32;15.13;;;8.60;;
13040;SDS011;6587;42.728;23.288;2023-03-21T11:16:03;12.10;;;7.90;;
13040;SDS011;6587;42.728;23.288;2023-03-21T11:18:30;14.20;;;7.40;;
13040;SDS011;6587;42.728;23.288;2023-03-21T11:20:57;13.37;;;7.97;;
13040;SDS011;6587;42.728;23.288;2023-03-21T11:23:28;13.93;;;7.60;;
13040;SDS011;6587;42.728;23.288;2023-03-21T11:25:56;9.75;;;6.75;;
13040;SDS011;6587;42.728;23.288;2023-03-21T11:28:25;10.40;;;6.57;;
13040;SDS011;6587;42.728;23.288;2023-03-21T11:30:59;10.17;;;6.90;;
13040;SDS011;6587;42.728;23.288;2023-03-21T11:33:26;10.80;;;7.17;;
13040;SDS011;6587;42.728;23.288;2023-03-21T11:36:01;9.80;;;7.30;;
13040;SDS011;6587;42.728;23.288;2023-03-21T11:38:29;40.53;;;28.47;;
13040;SDS011;6587;42.728;23.288;2023-03-21T11:40:57;57.67;;;37.67;;
13040;SDS011;6587;42.728;23.288;2023-03-21T11:43:25;9.57;;;7.00;;
13040;SDS011;6587;42.728;23.288;2023-03-21T11:45:55;10.13;;;6.57;;
13040;SDS011;6587;42.728;23.288;2023-03-21T11:48:23;9.17;;;6.30;;
13040;SDS011;6587;42.728;23.288;2023-03-21T11:50:51;8.37;;;5.87;;
13040;SDS011;6587;42.728;23.288;2023-03-21T11:53:24;10.20;;;6.80;;
13040;SDS011;6587;42.728;23.288;2023-03-21T11:55:59;10.13;;;6.33;;
13040;SDS011;6587;42.728;23.288;2023-03-21T11:58:36;10.43;;;6.70;;
13040;SDS011;6587;42.728;23.288;2023-03-21T12:01:05;9.97;;;6.73;;
13040;SDS011;6587;42.728;23.288;2023-03-21T12:06:23;14.73;;;7.27;;
13040;SDS011;6587;42.728;23.288;2023-03-21T12:08:53;10.60;;;7.20;;
13040;SDS011;6587;42.728;23.288;2023-03-21T12:11:24;10.37;;;6.97;;
13040;SDS011;6587;42.728;23.288;2023-03-21T12:13:56;13.17;;;7.20;;
13040;SDS011;6587;42.728;23.288;2023-03-21T12:16:29;14.67;;;6.60;;
13040;SDS011;6587;42.728;23.288;2023-03-21T12:21:41;14.43;;;6.77;;
13040;SDS011;6587;42.728;23.288;2023-03-21T12:24:10;10.37;;;5.93;;
13040;SDS011;6587;42.728;23.288;2023-03-21T12:26:39;9.73;;;5.27;;
13040;SDS011;6587;42.728;23.288;2023-03-21T12:29:11;7.80;;;5.00;;
13040;SDS011;6587;42.728;23.288;2023-03-21T12:31:43;5.57;;;4.70;;
13040;SDS011;6587;42.728;23.288;2023-03-21T12:34:17;8.60;;;5.13;;
13040;SDS011;6587;42.728;23.288;2023-03-21T12:36:51;6.57;;;4.97;;
13040;SDS011;6587;42.728;23.288;2023-03-21T12:39:23;9.90;;;5.43;;
13040;SDS011;6587;42.728;23.288;2023-03-21T12:41:54;9.40;;;5.97;;
13040;SDS011;6587;42.728;23.288;2023-03-21T12:44:24;8.33;;;5.87;;
13040;SDS011;6587;42.728;23.288;2023-03-21T12:46:54;8.00;;;5.60;;
13040;SDS011;6587;42.728;23.288;2023-03-21T12:49:23;7.67;;;5.60;;
13040;SDS011;6587;42.728;23.288;2023-03-21T12:51:54;9.50;;;5.70;;
13040;SDS011;6587;42.728;23.288;2023-03-21T12:54:22;12.73;;;5.90;;
13040;SDS011;6587;42.728;23.288;2023-03-21T12:56:53;6.87;;;5.10;;
13040;SDS011;6587;42.728;23.288;2023-03-21T12:59:24;7.07;;;4.93;;
13040;SDS011;6587;42.728;23.288;2023-03-21T13:01:53;8.67;;;5.67;;
13040;SDS011;6587;42.728;23.288;2023-03-21T13:04:29;11.53;;;5.03;;
13040;SDS011;6587;42.728;23.288;2023-03-21T13:06:59;6.63;;;5.50;;
13040;SDS011;6587;42.728;23.288;2023-03-21T13:09:28;7.87;;;5.77;;
13040;SDS011;6587;42.728;23.288;2023-03-21T13:11:57;7.80;;;5.27;;
13040;SDS011;6587;42.728;23.288;2023-03-21T13:14:25;7.97;;;5.40;;
13040;SDS011;6587;42.728;23.288;2023-03-21T13:16:53;8.00;;;5.80;;
13040;SDS011;6587;42.728;23.288;2023-03-21T13:19:23;10.83;;;5.40;;
13040;SDS011;6587;42.728;23.288;2023-03-21T13:21:55;8.57;;;5.77;;
13040;SDS011;6587;42.728;23.288;2023-03-21T13:24:27;7.40;;;5.17;;
13040;SDS011;6587;42.728;23.288;2023-03-21T13:26:57;9.03;;;5.47;;
13040;SDS011;6587;42.728;23.288;2023-03-21T13:29:27;6.77;;;5.30;;
13040;SDS011;6587;42.728;23.288;2023-03-21T13:31:57;8.57;;;5.53;;
13040;SDS011;6587;42.728;23.288;2023-03-21T13:34:24;7.67;;;5.77;;
13040;SDS011;6587;42.728;23.288;2023-03-21T13:36:52;7.87;;;5.07;;
13040;SDS011;6587;42.728;23.288;2023-03-21T13:39:23;9.67;;;5.63;;
13040;SDS011;6587;42.728;23.288;2023-03-21T13:41:52;8.43;;;5.60;;
13040;SDS011;6587;42.728;23.288;2023-03-21T13:44:22;10.43;;;5.70;;
13040;SDS011;6587;42.728;23.288;2023-03-21T13:46:53;10.60;;;5.97;;
13040;SDS011;6587;42.728;23.288;2023-03-21T13:49:27;11.70;;;5.73;;
13040;SDS011;6587;42.728;23.288;2023-03-21T13:51:55;9.53;;;5.33;;
13040;SDS011;6587;42.728;23.288;2023-03-21T13:54:26;13.57;;;5.97;;
13040;SDS011;6587;42.728;23.288;2023-03-21T13:56:56;12.67;;;5.70;;
13040;SDS011;6587;42.728;23.288;2023-03-21T14:02:27;8.37;;;5.17;;
13040;SDS011;6587;42.728;23.288;2023-03-21T14:04:55;7.07;;;5.53;;
13040;SDS011;6587;42.728;23.288;2023-03-21T14:07:24;7.37;;;5.57;;
13040;SDS011;6587;42.728;23.288;2023-03-21T14:09:52;9.40;;;5.20;;
13040;SDS011;6587;42.728;23.288;2023-03-21T14:12:21;7.23;;;5.40;;
13040;SDS011;6587;42.728;23.288;2023-03-21T14:14:50;10.17;;;5.53;;
13040;SDS011;6587;42.728;23.288;2023-03-21T14:17:21;6.43;;;5.03;;
13040;SDS011;6587;42.728;23.288;2023-03-21T14:19:50;8.60;;;5.47;;
13040;SDS011;6587;42.728;23.288;2023-03-21T14:22:17;8.53;;;5.67;;
13040;SDS011;6587;42.728;23.288;2023-03-21T14:24:46;8.20;;;5.13;;
13040;SDS011;6587;42.728;23.288;2023-03-21T14:27:12;9.20;;;5.77;;
13040;SDS011;6587;42.728;23.288;2023-03-21T14:29:41;8.13;;;5.80;;
13040;SDS011;6587;42.728;23.288;2023-03-21T14:32:13;6.90;;;5.40;;
13040;SDS011;6587;42.728;23.288;2023-03-21T14:34:41;7.47;;;5.40;;
13040;SDS011;6587;42.728;23.288;2023-03-21T14:37:10;7.63;;;5.73;;
13040;SDS011;6587;42.728;23.288;2023-03-21T14:39:37;9.50;;;5.53;;
13040;SDS011;6587;42.728;23.288;2023-03-21T14:42:04;7.90;;;5.70;;
13040;SDS011;6587;42.728;23.288;2023-03-21T14:44:32;10.60;;;5.67;;
13040;SDS011;6587;42.728;23.288;2023-03-21T14:47:01;9.50;;;5.37;;
13040;SDS011;6587;42.728;23.288;2023-03-21T14:49:28;8.87;;;5.93;;
13040;SDS011;6587;42.728;23.288;2023-03-21T14:51:56;7.13;;;5.27;;
13040;SDS011;6587;42.728;23.288;2023-03-21T14:54:24;8.43;;;5.47;;